Time;durP1;ratioP1;P1;durP2;ratioP2;P2;SDS_P1;SDS_P2;PMS_P1;PMS_P2;Temp;Humidity;BMP_temperature;BMP_pressure;BME280_temperature;BME280_humidity;BME280_pressure;Samples;Min_cycle;Max_cycle;Signal;HPM_P1;HPM_P2
2022/03/23 00:02:07;;;;;;;25.70;12.27;;;;;;;;;;5092348;28;20062;-45
2022/03/23 00:04:32;;;;;;;28.63;12.98;;;;;;;;;;5092587;28;20024;-46
2022/03/23 00:06:59;;;;;;;29.35;12.90;;;;;;;;;;5092654;28;20024;-47
2022/03/23 00:09:26;;;;;;;29.40;13.18;;;;;;;;;;5092444;28;20526;-46
2022/03/23 00:11:52;;;;;;;27.73;12.60;;;;;;;;;;5092608;28;20103;-47
2022/03/23 00:14:18;;;;;;;24.42;12.38;;;;;;;;;;5092500;28;20051;-45
2022/03/23 00:16:43;;;;;;;26.63;13.07;;;;;;;;;;5092354;28;20069;-46
2022/03/23 00:19:09;;;;;;;25.25;12.40;;;;;;;;;;5092292;28;20111;-48
2022/03/23 00:21:35;;;;;;;24.30;12.57;;;;;;;;;;5092591;28;20379;-48
2022/03/23 00:24:00;;;;;;;27.83;12.80;;;;;;;;;;5092500;28;20019;-45
2022/03/23 00:26:26;;;;;;;28.08;12.57;;;;;;;;;;5092228;28;20475;-47
2022/03/23 00:28:51;;;;;;;31.15;13.00;;;;;;;;;;5095286;28;20024;-45
2022/03/23 00:31:18;;;;;;;26.42;11.98;;;;;;;;;;5095788;28;20414;-46
2022/03/23 00:33:44;;;;;;;25.52;12.80;;;;;;;;;;5095751;28;20478;-47
2022/03/23 00:36:10;;;;;;;32.90;12.73;;;;;;;;;;5085573;28;20044;-44
2022/03/23 00:38:35;;;;;;;23.58;12.80;;;;;;;;;;5095833;28;20016;-46
2022/03/23 00:41:19;;;;;;;24.08;12.32;;;;;;;;;;5095767;28;20101;-44
2022/03/23 00:43:45;;;;;;;29.73;13.68;;;;;;;;;;5096001;28;20032;-45
2022/03/23 00:46:10;;;;;;;24.90;12.98;;;;;;;;;;5095513;28;20073;-44
2022/03/23 00:48:36;;;;;;;23.67;12.48;;;;;;;;;;5095790;28;20034;-45
2022/03/23 00:51:01;;;;;;;26.25;13.07;;;;;;;;;;5095878;28;20478;-47
2022/03/23 00:53:27;;;;;;;26.58;12.10;;;;;;;;;;5095759;28;20027;-44
2022/03/23 00:55:52;;;;;;;25.77;11.55;;;;;;;;;;5095635;28;20020;-48
2022/03/23 00:58:17;;;;;;;22.35;11.65;;;;;;;;;;5095479;28;20024;-46
2022/03/23 01:00:44;;;;;;;25.38;12.07;;;;;;;;;;5095174;28;20038;-45
2022/03/23 01:03:12;;;;;;;20.83;11.25;;;;;;;;;;5095575;28;20027;-45
2022/03/23 01:05:38;;;;;;;31.15;11.95;;;;;;;;;;5095464;28;20031;-49
2022/03/23 01:08:03;;;;;;;24.60;11.40;;;;;;;;;;5095553;28;20016;-48
2022/03/23 01:10:29;;;;;;;20.63;11.75;;;;;;;;;;5095380;28;20024;-49
2022/03/23 01:12:55;;;;;;;26.08;12.45;;;;;;;;;;5095169;28;20031;-45
2022/03/23 01:15:20;;;;;;;20.77;11.35;;;;;;;;;;5094932;28;20026;-46
2022/03/23 01:17:46;;;;;;;24.25;11.52;;;;;;;;;;5095336;28;20109;-47
2022/03/23 01:20:14;;;;;;;22.10;12.27;;;;;;;;;;5095290;28;20089;-44
2022/03/23 01:22:40;;;;;;;21.25;11.75;;;;;;;;;;5095146;28;20020;-43
2022/03/23 01:25:07;;;;;;;21.17;11.65;;;;;;;;;;5095016;28;20024;-45
2022/03/23 01:27:33;;;;;;;24.48;12.02;;;;;;;;;;5095152;28;20044;-45
2022/03/23 01:29:59;;;;;;;20.77;11.77;;;;;;;;;;5094632;28;20078;-44
2022/03/23 01:32:24;;;;;;;22.25;11.60;;;;;;;;;;5095527;28;20113;-44
2022/03/23 01:34:49;;;;;;;28.92;11.32;;;;;;;;;;5094796;28;20028;-44
2022/03/23 01:37:15;;;;;;;24.92;11.80;;;;;;;;;;5076677;28;20202;-45
2022/03/23 01:39:40;;;;;;;25.67;12.30;;;;;;;;;;5093552;28;20067;-45
2022/03/23 01:42:06;;;;;;;23.40;10.63;;;;;;;;;;5094527;28;20024;-44
2022/03/23 01:44:32;;;;;;;24.98;11.70;;;;;;;;;;5094445;28;20020;-46
2022/03/23 01:46:58;;;;;;;23.15;10.63;;;;;;;;;;5094652;28;20024;-47
2022/03/23 01:49:24;;;;;;;25.58;11.77;;;;;;;;;;5076375;28;20020;-44
2022/03/23 01:51:49;;;;;;;25.73;11.38;;;;;;;;;;5094599;28;20017;-44
2022/03/23 01:54:14;;;;;;;25.42;11.68;;;;;;;;;;5094213;28;20020;-44
2022/03/23 01:56:41;;;;;;;23.77;11.43;;;;;;;;;;5094449;28;20024;-47
2022/03/23 01:59:07;;;;;;;25.27;10.73;;;;;;;;;;5075920;28;20059;-45
2022/03/23 02:01:33;;;;;;;24.90;12.00;;;;;;;;;;5094148;28;20123;-46
2022/03/23 02:03:58;;;;;;;29.70;11.25;;;;;;;;;;5094397;28;20016;-46
2022/03/23 02:06:24;;;;;;;23.02;12.45;;;;;;;;;;5094198;28;20016;-47
2022/03/23 02:08:49;;;;;;;23.77;10.70;;;;;;;;;;5094280;28;20020;-46
2022/03/23 02:11:15;;;;;;;24.45;11.85;;;;;;;;;;5094040;28;20054;-46
2022/03/23 02:13:40;;;;;;;24.80;11.02;;;;;;;;;;5093888;28;20341;-49
2022/03/23 02:16:06;;;;;;;23.98;10.73;;;;;;;;;;5093871;28;20415;-47
2022/03/23 02:18:31;;;;;;;31.85;12.60;;;;;;;;;;5094027;28;20084;-47
2022/03/23 02:20:56;;;;;;;21.65;11.43;;;;;;;;;;5094002;28;20032;-49
2022/03/23 02:23:22;;;;;;;23.83;12.00;;;;;;;;;;5093858;28;20106;-46
2022/03/23 02:25:49;;;;;;;25.85;11.38;;;;;;;;;;5094024;28;20498;-46
2022/03/23 02:28:14;;;;;;;27.02;11.15;;;;;;;;;;5093680;28;20028;-44
2022/03/23 02:30:40;;;;;;;22.13;10.90;;;;;;;;;;5093496;28;20518;-45
2022/03/23 02:33:05;;;;;;;24.75;10.98;;;;;;;;;;5093822;28;20455;-47
2022/03/23 02:35:30;;;;;;;28.15;12.43;;;;;;;;;;5093531;28;20169;-50
2022/03/23 02:37:56;;;;;;;22.40;10.75;;;;;;;;;;5075493;28;20054;-46
2022/03/23 02:40:21;;;;;;;23.67;10.35;;;;;;;;;;5093532;28;20475;-45
2022/03/23 02:42:46;;;;;;;21.30;11.07;;;;;;;;;;5093422;28;20027;-45
2022/03/23 02:45:12;;;;;;;22.92;11.07;;;;;;;;;;5093267;28;20020;-47
2022/03/23 02:47:38;;;;;;;25.95;11.23;;;;;;;;;;5093477;28;20027;-44
2022/03/23 02:50:03;;;;;;;24.10;10.85;;;;;;;;;;5093249;28;20036;-45
2022/03/23 02:52:31;;;;;;;21.83;10.82;;;;;;;;;;5093572;28;20103;-45
2022/03/23 03:03:10;;;;;;;20.58;10.85;;;;;;;;;;5093420;28;20030;-46
2022/03/23 03:05:35;;;;;;;19.90;10.23;;;;;;;;;;5093149;28;20024;-46
2022/03/23 03:10:44;;;;;;;25.63;11.30;;;;;;;;;;5092984;28;20484;-44
2022/03/23 03:13:10;;;;;;;23.98;10.85;;;;;;;;;;5093187;28;20020;-46
2022/03/23 03:15:35;;;;;;;20.33;10.15;;;;;;;;;;5093124;28;20027;-47
2022/03/23 03:18:03;;;;;;;26.65;12.23;;;;;;;;;;5092223;28;20028;-43
2022/03/23 03:20:29;;;;;;;20.10;9.90;;;;;;;;;;5092981;28;20046;-45
2022/03/23 03:22:54;;;;;;;25.40;11.75;;;;;;;;;;5092718;28;20107;-43
2022/03/23 03:25:23;;;;;;;23.80;10.32;;;;;;;;;;5092790;28;20026;-45
2022/03/23 03:27:48;;;;;;;19.38;10.10;;;;;;;;;;5074789;28;20052;-46
2022/03/23 03:30:15;;;;;;;22.17;11.07;;;;;;;;;;5092749;28;20136;-47
2022/03/23 03:32:41;;;;;;;23.80;11.10;;;;;;;;;;5092883;28;20020;-47
2022/03/23 03:35:07;;;;;;;23.55;10.88;;;;;;;;;;5093134;28;20031;-44
2022/03/23 03:37:33;;;;;;;27.75;11.98;;;;;;;;;;5092550;28;20379;-44
2022/03/23 03:39:59;;;;;;;25.95;11.82;;;;;;;;;;5092952;28;20031;-47
2022/03/23 03:42:25;;;;;;;22.77;11.48;;;;;;;;;;5092795;28;20428;-45
2022/03/23 03:44:51;;;;;;;21.92;11.75;;;;;;;;;;5092915;28;20077;-47
2022/03/23 03:47:16;;;;;;;21.92;11.80;;;;;;;;;;5092706;28;20028;-46
2022/03/23 03:49:41;;;;;;;23.42;12.18;;;;;;;;;;5092601;28;20153;-46
2022/03/23 03:52:07;;;;;;;31.17;12.15;;;;;;;;;;5092519;28;20024;-45
2022/03/23 03:54:32;;;;;;;32.55;13.02;;;;;;;;;;5093022;28;20027;-46
2022/03/23 03:56:57;;;;;;;27.52;13.38;;;;;;;;;;5092783;28;20023;-45
2022/03/23 03:59:23;;;;;;;30.75;12.52;;;;;;;;;;5092698;28;20348;-46
2022/03/23 04:01:48;;;;;;;30.17;13.27;;;;;;;;;;5092656;28;20016;-47
2022/03/23 04:04:14;;;;;;;29.73;13.90;;;;;;;;;;5096449;28;20024;-50
2022/03/23 04:06:39;;;;;;;29.45;13.63;;;;;;;;;;5096487;28;20046;-44
2022/03/23 04:09:05;;;;;;;30.05;14.23;;;;;;;;;;5096768;28;20027;-45
2022/03/23 04:11:30;;;;;;;28.40;13.52;;;;;;;;;;5078342;28;20375;-46
2022/03/23 04:13:56;;;;;;;26.00;13.90;;;;;;;;;;5096322;28;20039;-45
2022/03/23 04:16:21;;;;;;;30.65;13.77;;;;;;;;;;5096568;28;20060;-44
2022/03/23 04:18:47;;;;;;;28.02;13.50;;;;;;;;;;5096309;28;20102;-46
2022/03/23 04:21:12;;;;;;;33.65;15.02;;;;;;;;;;5077772;28;20059;-48
2022/03/23 04:23:38;;;;;;;29.65;14.48;;;;;;;;;;5096031;28;20110;-45
2022/03/23 04:26:03;;;;;;;28.13;14.95;;;;;;;;;;5096298;28;20153;-48
2022/03/23 04:28:29;;;;;;;30.98;16.02;;;;;;;;;;5096031;28;20081;-45
2022/03/23 04:30:55;;;;;;;27.35;14.23;;;;;;;;;;5096015;28;20378;-47
2022/03/23 04:33:20;;;;;;;37.13;16.17;;;;;;;;;;5096159;28;20455;-42
2022/03/23 04:35:45;;;;;;;30.83;15.55;;;;;;;;;;5095996;28;20048;-43
2022/03/23 04:38:11;;;;;;;32.38;15.02;;;;;;;;;;5095648;28;20031;-46
2022/03/23 04:40:36;;;;;;;31.27;14.55;;;;;;;;;;5095884;28;20042;-46
2022/03/23 04:43:02;;;;;;;29.60;14.77;;;;;;;;;;5077740;28;20024;-44
2022/03/23 04:45:27;;;;;;;31.83;15.45;;;;;;;;;;5095861;28;20420;-45
2022/03/23 04:47:53;;;;;;;36.40;15.30;;;;;;;;;;5077440;28;20344;-46
2022/03/23 04:50:19;;;;;;;36.58;15.05;;;;;;;;;;5077483;28;20020;-43
2022/03/23 04:52:45;;;;;;;28.98;14.63;;;;;;;;;;5095434;28;20042;-48
2022/03/23 04:55:11;;;;;;;29.65;14.00;;;;;;;;;;5095909;28;20024;-43
2022/03/23 04:57:37;;;;;;;35.08;15.38;;;;;;;;;;5095617;28;20482;-45
2022/03/23 05:00:04;;;;;;;26.90;14.50;;;;;;;;;;5077433;28;20040;-44
2022/03/23 05:02:29;;;;;;;31.90;15.82;;;;;;;;;;5077239;28;20024;-46
2022/03/23 05:04:54;;;;;;;41.15;16.52;;;;;;;;;;5095369;28;20039;-44
2022/03/23 05:07:20;;;;;;;31.60;14.80;;;;;;;;;;5095048;28;20031;-44
2022/03/23 05:09:45;;;;;;;30.15;14.88;;;;;;;;;;5095655;28;20027;-44
2022/03/23 05:12:10;;;;;;;36.08;14.88;;;;;;;;;;5095420;28;20054;-44
2022/03/23 05:14:36;;;;;;;33.90;15.32;;;;;;;;;;5095144;28;20113;-44
2022/03/23 05:17:01;;;;;;;30.17;14.15;;;;;;;;;;5095098;28;20020;-44
2022/03/23 05:19:27;;;;;;;29.77;15.13;;;;;;;;;;5095128;28;20034;-49
2022/03/23 05:21:52;;;;;;;36.35;16.15;;;;;;;;;;5094933;28;20028;-43
2022/03/23 05:24:18;;;;;;;36.83;16.25;;;;;;;;;;5094985;28;20042;-46
2022/03/23 05:26:43;;;;;;;30.80;15.25;;;;;;;;;;5095281;28;20047;-46
2022/03/23 05:29:09;;;;;;;27.10;14.57;;;;;;;;;;5094849;28;20077;-47
2022/03/23 05:31:35;;;;;;;33.55;14.77;;;;;;;;;;5094919;28;20027;-43
2022/03/23 05:34:00;;;;;;;32.55;15.75;;;;;;;;;;5094739;28;20467;-45
2022/03/23 05:36:25;;;;;;;40.80;16.48;;;;;;;;;;5094348;28;20110;-43
2022/03/23 05:38:51;;;;;;;30.42;13.93;;;;;;;;;;5094534;28;20024;-44
2022/03/23 05:41:17;;;;;;;35.65;16.33;;;;;;;;;;5094606;28;20043;-46
2022/03/23 05:43:42;;;;;;;38.72;16.02;;;;;;;;;;5094348;28;20413;-44
2022/03/23 05:46:08;;;;;;;45.60;17.63;;;;;;;;;;5095023;28;20022;-48
2022/03/23 05:48:33;;;;;;;42.05;16.55;;;;;;;;;;5094572;28;20023;-46
2022/03/23 05:50:58;;;;;;;32.22;15.02;;;;;;;;;;5094412;28;20100;-44
2022/03/23 05:53:24;;;;;;;40.97;16.55;;;;;;;;;;5094180;28;20020;-44
2022/03/23 05:55:49;;;;;;;37.47;17.05;;;;;;;;;;5094523;28;20039;-45
2022/03/23 05:58:14;;;;;;;39.22;16.98;;;;;;;;;;5094505;28;20038;-45
2022/03/23 06:00:40;;;;;;;46.53;18.75;;;;;;;;;;5094215;28;20036;-44
2022/03/23 06:03:05;;;;;;;39.08;17.30;;;;;;;;;;5094290;28;20097;-43
2022/03/23 06:05:30;;;;;;;35.40;16.42;;;;;;;;;;5093976;28;20099;-44
2022/03/23 06:07:56;;;;;;;36.10;16.15;;;;;;;;;;5093938;28;20103;-44
2022/03/23 06:10:22;;;;;;;45.50;17.30;;;;;;;;;;5093862;28;20530;-41
2022/03/23 06:12:47;;;;;;;54.78;17.00;;;;;;;;;;5094143;28;20016;-41
2022/03/23 06:15:12;;;;;;;40.85;17.15;;;;;;;;;;5075853;28;20016;-41
2022/03/23 06:17:38;;;;;;;37.40;16.98;;;;;;;;;;5094151;28;20020;-44
2022/03/23 06:20:05;;;;;;;32.22;16.08;;;;;;;;;;5093834;28;20491;-44
2022/03/23 06:22:30;;;;;;;39.80;16.27;;;;;;;;;;5093683;28;20012;-42
2022/03/23 06:24:56;;;;;;;41.30;15.50;;;;;;;;;;5093320;28;20024;-43
2022/03/23 06:27:21;;;;;;;35.22;15.35;;;;;;;;;;5093813;28;20023;-43
2022/03/23 06:29:46;;;;;;;31.98;15.18;;;;;;;;;;5093544;28;20903;-42
2022/03/23 06:32:12;;;;;;;36.97;15.27;;;;;;;;;;5093564;28;20352;-43
2022/03/23 06:34:38;;;;;;;37.75;14.45;;;;;;;;;;5075491;28;20028;-42
2022/03/23 06:37:04;;;;;;;34.15;15.43;;;;;;;;;;5093381;28;20127;-41
2022/03/23 06:39:30;;;;;;;30.75;15.05;;;;;;;;;;5093280;28;20608;-43
2022/03/23 06:41:55;;;;;;;44.78;14.50;;;;;;;;;;5075309;28;20035;-50
2022/03/23 06:44:21;;;;;;;30.58;14.57;;;;;;;;;;5093657;28;20020;-42
2022/03/23 06:46:46;;;;;;;32.25;13.07;;;;;;;;;;5093452;28;20023;-42
2022/03/23 06:49:12;;;;;;;36.63;14.32;;;;;;;;;;5091040;28;20020;-48
2022/03/23 06:51:38;;;;;;;35.20;14.77;;;;;;;;;;5088470;28;20043;-43
2022/03/23 06:54:03;;;;;;;27.73;14.40;;;;;;;;;;5052779;28;20132;-42
2022/03/23 06:56:28;;;;;;;40.65;14.98;;;;;;;;;;5090856;28;20039;-42
2022/03/23 06:58:55;;;;;;;31.70;15.20;;;;;;;;;;5084730;28;20026;-45
2022/03/23 07:01:20;;;;;;;32.08;15.02;;;;;;;;;;5088132;28;20028;-43
2022/03/23 07:03:46;;;;;;;42.13;16.15;;;;;;;;;;5084942;28;20026;-43
2022/03/23 07:06:11;;;;;;;33.58;13.88;;;;;;;;;;5087293;28;20015;-43
2022/03/23 07:11:20;;;;;;;30.55;12.75;;;;;;;;;;5090892;28;20027;-44
2022/03/23 07:13:45;;;;;;;32.85;14.00;;;;;;;;;;5089641;28;20024;-43
2022/03/23 07:16:11;;;;;;;34.47;12.93;;;;;;;;;;5089946;28;20052;-44
2022/03/23 07:18:36;;;;;;;24.88;12.38;;;;;;;;;;5089308;28;20520;-44
2022/03/23 07:21:04;;;;;;;31.25;12.50;;;;;;;;;;5090622;28;20115;-47
2022/03/23 07:23:29;;;;;;;27.80;12.05;;;;;;;;;;5090789;28;20082;-45
2022/03/23 07:25:55;;;;;;;27.15;11.98;;;;;;;;;;5090669;28;20043;-45
2022/03/23 07:28:20;;;;;;;28.92;12.63;;;;;;;;;;5072193;28;20050;-43
2022/03/23 07:30:45;;;;;;;32.53;14.48;;;;;;;;;;5089826;28;20020;-45
2022/03/23 07:33:11;;;;;;;35.97;13.48;;;;;;;;;;5089715;28;21876;-44
2022/03/23 07:35:36;;;;;;;31.35;12.57;;;;;;;;;;5088041;28;20540;-45
2022/03/23 07:38:02;;;;;;;31.35;12.15;;;;;;;;;;5090130;28;20848;-45
2022/03/23 07:40:27;;;;;;;44.25;13.80;;;;;;;;;;5094011;28;20039;-43
2022/03/23 07:42:52;;;;;;;79.70;35.17;;;;;;;;;;5094544;28;20047;-45
2022/03/23 07:45:18;;;;;;;52.05;14.82;;;;;;;;;;5094157;28;20012;-44
2022/03/23 07:47:44;;;;;;;24.10;11.38;;;;;;;;;;5094364;28;20103;-45
2022/03/23 07:50:10;;;;;;;32.20;12.43;;;;;;;;;;5094891;28;20020;-43
2022/03/23 07:52:35;;;;;;;38.80;14.45;;;;;;;;;;5094970;28;20032;-45
2022/03/23 07:55:01;;;;;;;36.15;14.70;;;;;;;;;;5095979;28;20031;-42
2022/03/23 07:57:27;;;;;;;30.77;14.55;;;;;;;;;;5095776;28;20028;-43
2022/03/23 07:59:55;;;;;;;39.35;13.35;;;;;;;;;;5090997;28;20063;-43
2022/03/23 08:02:21;;;;;;;36.25;13.20;;;;;;;;;;5095196;28;20071;-43
2022/03/23 08:04:46;;;;;;;36.30;13.40;;;;;;;;;;5095360;28;20024;-42
2022/03/23 08:07:11;;;;;;;36.05;13.15;;;;;;;;;;5095315;28;20016;-45
2022/03/23 08:09:36;;;;;;;39.80;13.25;;;;;;;;;;5095375;28;20020;-42
2022/03/23 08:12:02;;;;;;;33.50;13.88;;;;;;;;;;5095872;28;20016;-43
2022/03/23 08:14:28;;;;;;;42.40;13.52;;;;;;;;;;5074212;28;20019;-44
2022/03/23 08:16:53;;;;;;;32.92;14.20;;;;;;;;;;5092646;28;20387;-48
2022/03/23 08:19:22;;;;;;;39.08;12.63;;;;;;;;;;5092786;28;20107;-45
2022/03/23 08:21:48;;;;;;;44.10;12.77;;;;;;;;;;5093507;28;20081;-44
2022/03/23 08:24:13;;;;;;;41.00;14.93;;;;;;;;;;5093951;28;20028;-46
2022/03/23 08:26:39;;;;;;;39.95;13.82;;;;;;;;;;5093005;28;20424;-45
2022/03/23 08:29:04;;;;;;;37.80;11.80;;;;;;;;;;5092707;28;20082;-45
2022/03/23 08:31:29;;;;;;;35.58;12.95;;;;;;;;;;5092909;28;20595;-45
2022/03/23 08:33:55;;;;;;;35.95;10.60;;;;;;;;;;5094470;28;20390;-47
2022/03/23 08:36:21;;;;;;;46.55;12.48;;;;;;;;;;5093356;28;20071;-44
2022/03/23 08:38:46;;;;;;;31.33;13.38;;;;;;;;;;5072718;28;20038;-44
2022/03/23 08:41:13;;;;;;;35.42;12.23;;;;;;;;;;5090982;28;20036;-44
2022/03/23 08:43:38;;;;;;;31.95;11.68;;;;;;;;;;5089534;28;20455;-46
2022/03/23 08:46:04;;;;;;;38.85;11.57;;;;;;;;;;5089807;28;20098;-46
2022/03/23 08:48:29;;;;;;;31.67;13.77;;;;;;;;;;5090496;28;20098;-44
2022/03/23 08:50:54;;;;;;;48.42;11.15;;;;;;;;;;5088805;28;20035;-46
2022/03/23 08:53:20;;;;;;;43.05;11.07;;;;;;;;;;5090683;28;20078;-42
2022/03/23 08:55:45;;;;;;;33.58;10.52;;;;;;;;;;5093022;28;20039;-43
2022/03/23 08:58:11;;;;;;;38.65;10.63;;;;;;;;;;5091690;28;20076;-44
2022/03/23 09:00:37;;;;;;;41.97;11.05;;;;;;;;;;5091257;28;20040;-47
2022/03/23 09:03:02;;;;;;;57.95;11.93;;;;;;;;;;5093343;28;20024;-45
2022/03/23 09:05:27;;;;;;;40.15;12.25;;;;;;;;;;5091463;28;20081;-46
2022/03/23 09:07:53;;;;;;;33.28;10.73;;;;;;;;;;5092696;28;20026;-44
2022/03/23 09:10:20;;;;;;;34.70;10.70;;;;;;;;;;5092796;28;20028;-43
2022/03/23 09:12:45;;;;;;;33.67;9.73;;;;;;;;;;5090121;28;20486;-44
2022/03/23 09:15:12;;;;;;;38.33;9.50;;;;;;;;;;5087217;28;20030;-44
2022/03/23 09:17:38;;;;;;;36.03;10.55;;;;;;;;;;5086336;28;20050;-44
2022/03/23 09:20:05;;;;;;;43.80;11.30;;;;;;;;;;5086493;28;20040;-44
2022/03/23 09:22:36;;;;;;;33.08;9.68;;;;;;;;;;5093868;28;20028;-45
2022/03/23 09:25:03;;;;;;;28.27;8.73;;;;;;;;;;5086584;28;20024;-44
2022/03/23 09:27:28;;;;;;;27.90;9.23;;;;;;;;;;5070680;28;20069;-44
2022/03/23 09:29:54;;;;;;;36.00;9.05;;;;;;;;;;5090610;28;20028;-46
2022/03/23 09:32:19;;;;;;;32.17;9.10;;;;;;;;;;5089317;28;20024;-46
2022/03/23 09:34:45;;;;;;;32.60;10.10;;;;;;;;;;5086597;28;20024;-44
2022/03/23 09:39:55;;;;;;;23.20;8.18;;;;;;;;;;5088006;28;20047;-45
2022/03/23 09:42:21;;;;;;;24.63;8.85;;;;;;;;;;5091351;28;20024;-45
2022/03/23 09:44:47;;;;;;;30.00;9.23;;;;;;;;;;5084719;28;20107;-49
2022/03/23 09:47:12;;;;;;;24.73;7.97;;;;;;;;;;5089670;28;20026;-45
2022/03/23 09:49:38;;;;;;;28.95;8.75;;;;;;;;;;5089042;28;20475;-49
2022/03/23 09:52:07;;;;;;;27.80;7.80;;;;;;;;;;5080721;28;20085;-47
2022/03/23 09:54:32;;;;;;;18.40;8.88;;;;;;;;;;5092902;28;20016;-43
2022/03/23 09:56:57;;;;;;;35.22;9.00;;;;;;;;;;5092385;28;20028;-46
2022/03/23 09:59:23;;;;;;;26.35;8.15;;;;;;;;;;5092213;28;20068;-45
2022/03/23 10:01:51;;;;;;;25.33;6.85;;;;;;;;;;5091194;28;20064;-45
2022/03/23 10:04:17;;;;;;;30.30;8.20;;;;;;;;;;5090108;28;20424;-44
2022/03/23 10:06:52;;;;;;;22.83;8.75;;;;;;;;;;5093075;28;20012;-44
2022/03/23 10:09:26;;;;;;;23.80;7.95;;;;;;;;;;5093290;28;20023;-44
2022/03/23 10:11:58;;;;;;;18.73;6.57;;;;;;;;;;5093337;28;20111;-44
2022/03/23 10:14:52;;;;;;;29.90;7.82;;;;;;;;;;5092969;28;20074;-44
2022/03/23 10:17:21;;;;;;;53.88;8.63;;;;;;;;;;5093382;28;20031;-49
2022/03/23 10:19:47;;;;;;;20.63;6.53;;;;;;;;;;5093202;28;20111;-45
2022/03/23 10:22:13;;;;;;;24.40;6.40;;;;;;;;;;5093382;28;20528;-44
2022/03/23 10:24:38;;;;;;;12.15;6.78;;;;;;;;;;5091609;28;20023;-45
2022/03/23 10:27:08;;;;;;;17.95;7.35;;;;;;;;;;5092854;28;20020;-47
2022/03/23 10:29:38;;;;;;;27.77;8.63;;;;;;;;;;5092738;28;20028;-45
2022/03/23 10:32:08;;;;;;;15.70;5.88;;;;;;;;;;5093042;28;20463;-44
2022/03/23 10:34:38;;;;;;;21.02;5.65;;;;;;;;;;5093093;28;20035;-45
2022/03/23 10:37:03;;;;;;;20.98;6.03;;;;;;;;;;5093159;28;20486;-45
2022/03/23 10:39:29;;;;;;;15.68;6.13;;;;;;;;;;5092398;28;20122;-44
2022/03/23 10:41:59;;;;;;;18.08;6.25;;;;;;;;;;5092202;28;20031;-45
2022/03/23 10:44:24;;;;;;;28.20;6.43;;;;;;;;;;5093073;28;20036;-46
2022/03/23 10:46:49;;;;;;;14.32;6.43;;;;;;;;;;5093085;28;20028;-45
2022/03/23 10:49:15;;;;;;;32.08;7.70;;;;;;;;;;5092574;28;20020;-47
2022/03/23 10:51:41;;;;;;;22.48;6.93;;;;;;;;;;5092310;28;20020;-44
2022/03/23 10:54:14;;;;;;;18.98;5.80;;;;;;;;;;5092569;28;20089;-44
2022/03/23 10:56:39;;;;;;;13.48;5.22;;;;;;;;;;5092293;28;20028;-46
2022/03/23 10:59:25;;;;;;;23.10;5.80;;;;;;;;;;5092525;28;20520;-46
2022/03/23 11:02:08;;;;;;;13.15;6.00;;;;;;;;;;5092024;28;20028;-45
2022/03/23 11:04:47;;;;;;;11.68;5.10;;;;;;;;;;5092446;28;20024;-45
2022/03/23 11:07:29;;;;;;;14.80;5.30;;;;;;;;;;5092447;28;20035;-46
2022/03/23 11:18:07;;;;;;;15.98;5.05;;;;;;;;;;5092567;28;20034;-45
2022/03/23 11:20:39;;;;;;;10.48;4.38;;;;;;;;;;5092061;28;20032;-45
2022/03/23 11:23:24;;;;;;;14.63;4.47;;;;;;;;;;5092397;28;20048;-48
2022/03/23 11:25:50;;;;;;;12.82;5.43;;;;;;;;;;5091680;28;20047;-42
2022/03/23 11:28:16;;;;;;;22.38;5.65;;;;;;;;;;5092336;28;20031;-48
2022/03/23 11:30:42;;;;;;;14.20;5.53;;;;;;;;;;5092152;28;20433;-44
2022/03/23 11:33:09;;;;;;;14.55;5.45;;;;;;;;;;5088706;28;20382;-44
2022/03/23 11:35:35;;;;;;;18.20;5.65;;;;;;;;;;5085528;28;20051;-48
2022/03/23 11:38:02;;;;;;;21.60;10.18;;;;;;;;;;5086815;28;20016;-43
2022/03/23 11:40:27;;;;;;;17.15;5.75;;;;;;;;;;5085130;28;20036;-43
2022/03/23 11:42:52;;;;;;;16.30;5.45;;;;;;;;;;5073944;28;20089;-43
2022/03/23 11:45:18;;;;;;;18.10;4.85;;;;;;;;;;5090709;28;20016;-43
2022/03/23 11:48:03;;;;;;;12.65;4.93;;;;;;;;;;5085815;28;20032;-43
2022/03/23 11:50:39;;;;;;;14.90;5.20;;;;;;;;;;5074010;28;20032;-44
2022/03/23 11:53:04;;;;;;;20.27;6.15;;;;;;;;;;5088865;28;20085;-45
2022/03/23 11:55:38;;;;;;;23.05;6.03;;;;;;;;;;5089446;28;20028;-43
2022/03/23 11:58:05;;;;;;;10.68;5.10;;;;;;;;;;5086011;28;20028;-45
2022/03/23 12:00:37;;;;;;;14.10;5.05;;;;;;;;;;5068322;28;20111;-44
2022/03/23 12:03:03;;;;;;;20.13;5.63;;;;;;;;;;5082680;28;20087;-42
2022/03/23 12:05:32;;;;;;;19.10;6.05;;;;;;;;;;5083829;28;20024;-39
2022/03/23 12:07:58;;;;;;;25.80;6.53;;;;;;;;;;5081978;28;20078;-40
2022/03/23 12:10:34;;;;;;;18.23;5.40;;;;;;;;;;5086267;28;20024;-39
2022/03/23 12:13:32;;;;;;;20.00;5.40;;;;;;;;;;5071656;28;20518;-39
2022/03/23 12:15:58;;;;;;;17.75;5.68;;;;;;;;;;5042463;28;20128;-41
2022/03/23 12:18:39;;;;;;;10.55;5.18;;;;;;;;;;5085177;28;20027;-41
2022/03/23 12:21:09;;;;;;;18.67;4.93;;;;;;;;;;5089457;28;20037;-41
2022/03/23 12:23:36;;;;;;;11.43;4.85;;;;;;;;;;5088892;28;20044;-46
2022/03/23 12:26:21;;;;;;;14.73;4.68;;;;;;;;;;5093288;28;20016;-46
2022/03/23 12:29:00;;;;;;;10.75;4.40;;;;;;;;;;5094466;28;20042;-46
2022/03/23 12:31:34;;;;;;;14.17;4.33;;;;;;;;;;5094801;28;20036;-45
2022/03/23 12:34:07;;;;;;;12.35;4.50;;;;;;;;;;5075829;28;20257;-48
2022/03/23 12:39:32;;;;;;;15.07;4.75;;;;;;;;;;5086945;28;20406;-41
2022/03/23 12:42:00;;;;;;;7.13;4.55;;;;;;;;;;5093442;28;20208;-41
2022/03/23 12:44:29;;;;;;;9.73;4.60;;;;;;;;;;5094924;28;20028;-40
2022/03/23 12:46:55;;;;;;;14.02;4.82;;;;;;;;;;5094683;28;20030;-40
2022/03/23 12:57:53;;;;;;;9.25;3.97;;;;;;;;;;5090822;28;20035;-45
2022/03/23 13:00:27;;;;;;;10.65;3.60;;;;;;;;;;5093466;28;20070;-47
2022/03/23 13:03:04;;;;;;;11.43;3.85;;;;;;;;;;5091145;28;20524;-40
2022/03/23 13:05:31;;;;;;;14.02;4.05;;;;;;;;;;5085870;28;20020;-40
2022/03/23 13:07:57;;;;;;;16.20;4.53;;;;;;;;;;5074297;28;20600;-40
2022/03/23 13:10:24;;;;;;;14.20;4.70;;;;;;;;;;5093603;28;20102;-41
2022/03/23 13:12:50;;;;;;;7.85;3.20;;;;;;;;;;5094387;28;20048;-40
2022/03/23 13:15:19;;;;;;;8.15;3.80;;;;;;;;;;5076232;28;20051;-41
2022/03/23 13:17:44;;;;;;;;;;;;;;;;;;5075571;28;20028;-40
2022/03/23 13:20:11;;;;;;;11.80;3.73;;;;;;;;;;5090480;28;19923;-40
2022/03/23 13:22:40;;;;;;;10.65;3.92;;;;;;;;;;5093414;28;20028;-40
2022/03/23 13:25:09;;;;;;;15.93;5.10;;;;;;;;;;5086746;28;20020;-40
2022/03/23 13:27:37;;;;;;;11.10;3.95;;;;;;;;;;5092997;28;20074;-41
2022/03/23 13:30:04;;;;;;;10.25;4.22;;;;;;;;;;5092192;28;20020;-40
2022/03/23 13:32:31;;;;;;;9.85;5.10;;;;;;;;;;5093646;28;20024;-39
2022/03/23 13:34:57;;;;;;;9.38;4.43;;;;;;;;;;5093773;28;20042;-47
2022/03/23 13:37:23;;;;;;;10.82;4.25;;;;;;;;;;5093397;28;20387;-40
2022/03/23 13:39:48;;;;;;;14.10;4.45;;;;;;;;;;5093262;28;20233;-44
2022/03/23 13:45:03;;;;;;;13.43;4.95;;;;;;;;;;5092439;28;20481;-46
2022/03/23 13:47:33;;;;;;;19.15;5.43;;;;;;;;;;5075308;28;20024;-44
2022/03/23 13:49:58;;;;;;;;;;;;;;;;;;5086555;28;20099;-47
2022/03/23 13:52:25;;;;;;;11.98;4.75;;;;;;;;;;5089437;28;20006;-44
2022/03/23 13:54:52;;;;;;;14.77;5.40;;;;;;;;;;5075537;28;20023;-46
2022/03/23 13:57:18;;;;;;;15.77;4.50;;;;;;;;;;5073155;28;20016;-46
2022/03/23 13:59:45;;;;;;;8.60;4.18;;;;;;;;;;5072082;28;20024;-44
2022/03/23 14:02:13;;;;;;;12.60;4.78;;;;;;;;;;5091136;28;20020;-44
2022/03/23 14:04:39;;;;;;;9.50;4.63;;;;;;;;;;5075095;28;20490;-45
2022/03/23 14:07:04;;;;;;;8.55;4.40;;;;;;;;;;5093017;28;20111;-45
2022/03/23 14:09:30;;;;;;;10.50;4.85;;;;;;;;;;5090599;28;20009;-45
2022/03/23 14:14:27;;;;;;;12.68;4.65;;;;;;;;;;5088960;28;20032;-41
2022/03/23 14:17:03;;;;;;;11.60;4.50;;;;;;;;;;5071506;28;20042;-41
2022/03/23 14:19:31;;;;;;;13.93;4.70;;;;;;;;;;5068932;28;20079;-41
2022/03/23 14:21:57;;;;;;;10.52;4.68;;;;;;;;;;5088964;28;20429;-41
2022/03/23 14:24:27;;;;;;;12.48;5.03;;;;;;;;;;5088262;28;20085;-40
2022/03/23 14:26:52;;;;;;;10.50;4.95;;;;;;;;;;5090586;28;20058;-40
2022/03/23 14:29:20;;;;;;;17.65;5.07;;;;;;;;;;5067530;28;20432;-41
2022/03/23 14:31:46;;;;;;;15.52;4.93;;;;;;;;;;5073157;28;20026;-41
2022/03/23 14:34:11;;;;;;;17.40;5.15;;;;;;;;;;5079769;28;20390;-40
2022/03/23 14:36:37;;;;;;;18.60;5.10;;;;;;;;;;5090262;28;20554;-40
2022/03/23 14:39:15;;;;;;;15.07;4.90;;;;;;;;;;5074221;28;20039;-40
2022/03/23 14:41:53;;;;;;;10.77;4.75;;;;;;;;;;5073632;28;20114;-39
2022/03/23 14:44:33;;;;;;;14.13;4.65;;;;;;;;;;5070726;28;20056;-40
2022/03/23 14:46:59;;;;;;;19.92;5.15;;;;;;;;;;5071697;28;20529;-41
2022/03/23 14:49:31;;;;;;;11.82;4.93;;;;;;;;;;5070882;28;20052;-40
2022/03/23 14:51:57;;;;;;;11.70;5.40;;;;;;;;;;5069095;28;20470;-40
2022/03/23 14:54:22;;;;;;;13.80;5.32;;;;;;;;;;5088425;28;20077;-40
2022/03/23 14:56:49;;;;;;;11.80;5.15;;;;;;;;;;5091493;28;20375;-40
2022/03/23 14:59:15;;;;;;;13.68;4.50;;;;;;;;;;5071993;28;20494;-40
2022/03/23 15:01:41;;;;;;;16.75;5.10;;;;;;;;;;5069935;28;20101;-40
2022/03/23 15:04:06;;;;;;;9.25;4.70;;;;;;;;;;5089246;28;20454;-40